Portada
METAR-TAF:

METAR-TAF

Aeroports :

Tahoua, Níger

latitud: 14-54N, longitud: 005-15E, altitud: 386 m

Observació

L'informe es va fer fa 43 minuts, a les 15:00 UTC
Vent 8 kt del Est/Sud-Est
Temperatura 28°C
Humitat 15%
Pressió 1013 hPa
Visibilitat: 1000 m
Pols estès

METAR: DRRT 201500Z 12008KT 1000 DU NSC 28/M01 Q1013

Hora: 16:43 (15:43 UTC)


TAF: manca

Observacions i pronòstics meteorològics de més de 4000 aeroports (METAR i TAF).

Les estacions disponibles són els punts grocs i vermells al mapa.

Posi el ratolí al punt desitjat per veure el nom de l'estació.

Feu clic per veure les observacions i els pronòstics meteorològics.

Per canviar el mapa: feu clic els botons verds amb una creu de color negre per apropar; al botó verd amb un guió per allunyar la imatge; o en les fletxes verdes per a mapes adjacents.


METAR-TAF: